sensor_id;sensor_type;location;lat;lon;timestamp;P1;P2;P0
59179;PMS7003;44956;52.422;20.818;2023-12-20T00:01:38;32.50;29.50;17.00
59179;PMS7003;44956;52.422;20.818;2023-12-20T00:04:41;25.00;25.00;16.00
59179;PMS7003;44956;52.422;20.818;2023-12-20T00:07:44;35.50;32.25;16.75
59179;PMS7003;44956;52.422;20.818;2023-12-20T00:10:47;28.00;25.75;16.00
59179;PMS7003;44956;52.422;20.818;2023-12-20T00:13:50;34.50;29.00;16.00
59179;PMS7003;44956;52.422;20.818;2023-12-20T00:16:53;32.75;26.50;14.00
59179;PMS7003;44956;52.422;20.818;2023-12-20T00:19:55;37.25;32.50;17.75
59179;PMS7003;44956;52.422;20.818;2023-12-20T00:22:58;35.50;30.25;15.75
59179;PMS7003;44956;52.422;20.818;2023-12-20T00:26:01;31.00;28.00;16.25
59179;PMS7003;44956;52.422;20.818;2023-12-20T00:29:04;31.00;27.25;17.00
59179;PMS7003;44956;52.422;20.818;2023-12-20T00:32:06;33.25;29.25;17.25
59179;PMS7003;44956;52.422;20.818;2023-12-20T00:35:09;29.50;26.75;16.25
59179;PMS7003;44956;52.422;20.818;2023-12-20T00:38:12;33.25;28.00;15.50
59179;PMS7003;44956;52.422;20.818;2023-12-20T00:41:15;31.50;29.50;18.75
59179;PMS7003;44956;52.422;20.818;2023-12-20T00:44:18;37.75;33.50;20.00
59179;PMS7003;44956;52.422;20.818;2023-12-20T00:47:21;37.50;29.50;17.00
59179;PMS7003;44956;52.422;20.818;2023-12-20T00:50:24;23.75;23.50;13.00
59179;PMS7003;44956;52.422;20.818;2023-12-20T00:53:31;31.50;28.50;17.25
59179;PMS7003;44956;52.422;20.818;2023-12-20T00:56:33;40.25;33.00;19.75
59179;PMS7003;44956;52.422;20.818;2023-12-20T00:59:36;41.50;27.75;15.25
59179;PMS7003;44956;52.422;20.818;2023-12-20T01:02:39;34.50;31.50;17.00
59179;PMS7003;44956;52.422;20.818;2023-12-20T01:05:42;33.50;26.75;16.25
59179;PMS7003;44956;52.422;20.818;2023-12-20T01:08:45;29.00;28.00;16.75
59179;PMS7003;44956;52.422;20.818;2023-12-20T01:11:48;26.00;26.00;16.00
59179;PMS7003;44956;52.422;20.818;2023-12-20T01:14:50;35.25;28.75;17.00
59179;PMS7003;44956;52.422;20.818;2023-12-20T01:17:53;31.75;29.75;16.00
59179;PMS7003;44956;52.422;20.818;2023-12-20T01:20:56;27.00;26.00;14.75
59179;PMS7003;44956;52.422;20.818;2023-12-20T01:23:59;21.00;16.75;14.00
59179;PMS7003;44956;52.422;20.818;2023-12-20T01:27:01;28.00;25.00;14.00
59179;PMS7003;44956;52.422;20.818;2023-12-20T01:30:04;22.00;21.75;10.50
59179;PMS7003;44956;52.422;20.818;2023-12-20T01:33:07;25.75;24.75;14.25
59179;PMS7003;44956;52.422;20.818;2023-12-20T01:36:10;24.75;21.75;14.00
59179;PMS7003;44956;52.422;20.818;2023-12-20T01:39:13;29.75;24.00;13.50
59179;PMS7003;44956;52.422;20.818;2023-12-20T01:42:29;32.50;26.75;16.00
59179;PMS7003;44956;52.422;20.818;2023-12-20T01:45:31;30.75;25.50;15.25
59179;PMS7003;44956;52.422;20.818;2023-12-20T01:48:34;24.00;23.25;14.00
59179;PMS7003;44956;52.422;20.818;2023-12-20T01:51:37;29.25;29.25;14.25
59179;PMS7003;44956;52.422;20.818;2023-12-20T01:54:40;25.25;23.50;12.00
59179;PMS7003;44956;52.422;20.818;2023-12-20T01:57:44;26.25;22.00;14.75
59179;PMS7003;44956;52.422;20.818;2023-12-20T02:00:48;21.75;21.75;13.25
59179;PMS7003;44956;52.422;20.818;2023-12-20T02:03:51;34.75;25.25;13.50
59179;PMS7003;44956;52.422;20.818;2023-12-20T02:06:54;24.50;21.00;13.50
59179;PMS7003;44956;52.422;20.818;2023-12-20T02:09:58;22.50;21.50;13.00
59179;PMS7003;44956;52.422;20.818;2023-12-20T02:13:01;21.25;20.75;13.00
59179;PMS7003;44956;52.422;20.818;2023-12-20T02:16:04;23.25;21.00;10.25
59179;PMS7003;44956;52.422;20.818;2023-12-20T02:19:10;24.00;16.25;10.00
59179;PMS7003;44956;52.422;20.818;2023-12-20T02:22:15;25.00;24.75;13.00
59179;PMS7003;44956;52.422;20.818;2023-12-20T02:25:19;22.00;21.00;12.75
59179;PMS7003;44956;52.422;20.818;2023-12-20T02:28:21;21.00;19.75;10.50
59179;PMS7003;44956;52.422;20.818;2023-12-20T02:31:26;21.75;21.00;12.75
59179;PMS7003;44956;52.422;20.818;2023-12-20T02:34:28;24.75;21.50;12.75
59179;PMS7003;44956;52.422;20.818;2023-12-20T02:37:35;27.50;23.00;12.00
59179;PMS7003;44956;52.422;20.818;2023-12-20T02:40:37;25.00;22.00;13.00
59179;PMS7003;44956;52.422;20.818;2023-12-20T02:43:40;24.00;24.00;13.50
59179;PMS7003;44956;52.422;20.818;2023-12-20T02:46:43;26.75;23.50;12.00
59179;PMS7003;44956;52.422;20.818;2023-12-20T02:49:46;20.50;19.75;11.00
59179;PMS7003;44956;52.422;20.818;2023-12-20T02:52:48;25.25;18.50;12.00
59179;PMS7003;44956;52.422;20.818;2023-12-20T02:55:51;22.75;22.25;12.75
59179;PMS7003;44956;52.422;20.818;2023-12-20T02:58:53;19.50;19.50;10.00
59179;PMS7003;44956;52.422;20.818;2023-12-20T03:01:57;22.25;22.25;11.50
59179;PMS7003;44956;52.422;20.818;2023-12-20T03:04:59;17.25;14.00;10.00
59179;PMS7003;44956;52.422;20.818;2023-12-20T03:08:02;26.00;21.75;12.50
59179;PMS7003;44956;52.422;20.818;2023-12-20T03:11:05;23.75;20.50;14.00
59179;PMS7003;44956;52.422;20.818;2023-12-20T03:14:08;21.25;19.50;13.00
59179;PMS7003;44956;52.422;20.818;2023-12-20T03:17:11;21.00;20.25;12.25
59179;PMS7003;44956;52.422;20.818;2023-12-20T03:20:14;20.00;19.25;13.00
59179;PMS7003;44956;52.422;20.818;2023-12-20T03:23:16;24.50;20.50;10.50
59179;PMS7003;44956;52.422;20.818;2023-12-20T03:26:19;23.75;21.50;13.25
59179;PMS7003;44956;52.422;20.818;2023-12-20T03:29:21;21.50;19.25;12.25
59179;PMS7003;44956;52.422;20.818;2023-12-20T03:32:24;23.50;20.50;12.00
59179;PMS7003;44956;52.422;20.818;2023-12-20T03:35:27;17.00;14.00;8.00
59179;PMS7003;44956;52.422;20.818;2023-12-20T03:38:30;22.75;21.00;10.00
59179;PMS7003;44956;52.422;20.818;2023-12-20T03:41:32;18.50;18.50;9.50
59179;PMS7003;44956;52.422;20.818;2023-12-20T03:44:38;20.00;20.00;11.75
59179;PMS7003;44956;52.422;20.818;2023-12-20T03:47:43;22.75;18.25;12.00
59179;PMS7003;44956;52.422;20.818;2023-12-20T03:50:46;18.00;17.00;10.00
59179;PMS7003;44956;52.422;20.818;2023-12-20T03:53:49;13.00;13.00;8.50
59179;PMS7003;44956;52.422;20.818;2023-12-20T03:56:52;21.00;18.75;10.00
59179;PMS7003;44956;52.422;20.818;2023-12-20T03:59:54;16.75;16.50;10.00
59179;PMS7003;44956;52.422;20.818;2023-12-20T04:02:57;17.50;17.50;9.25
59179;PMS7003;44956;52.422;20.818;2023-12-20T04:05:59;21.00;18.25;9.25
59179;PMS7003;44956;52.422;20.818;2023-12-20T04:09:02;14.25;13.50;7.75
59179;PMS7003;44956;52.422;20.818;2023-12-20T04:12:05;23.25;21.75;10.00
59179;PMS7003;44956;52.422;20.818;2023-12-20T04:15:09;23.50;21.50;12.00
59179;PMS7003;44956;52.422;20.818;2023-12-20T04:18:12;18.75;17.25;10.00
59179;PMS7003;44956;52.422;20.818;2023-12-20T04:21:14;20.25;19.00;10.00
59179;PMS7003;44956;52.422;20.818;2023-12-20T04:24:17;20.25;16.00;10.50
59179;PMS7003;44956;52.422;20.818;2023-12-20T04:27:20;23.25;21.25;12.25
59179;PMS7003;44956;52.422;20.818;2023-12-20T04:30:22;20.50;16.50;8.50
59179;PMS7003;44956;52.422;20.818;2023-12-20T04:33:25;17.25;16.50;9.00
59179;PMS7003;44956;52.422;20.818;2023-12-20T04:36:28;21.50;16.75;8.50
59179;PMS7003;44956;52.422;20.818;2023-12-20T04:39:32;19.75;16.25;9.25
59179;PMS7003;44956;52.422;20.818;2023-12-20T04:42:35;18.75;17.00;9.25
59179;PMS7003;44956;52.422;20.818;2023-12-20T04:45:38;13.25;12.75;5.00
59179;PMS7003;44956;52.422;20.818;2023-12-20T04:48:40;20.25;16.75;10.75
59179;PMS7003;44956;52.422;20.818;2023-12-20T04:51:43;13.75;13.75;8.75
59179;PMS7003;44956;52.422;20.818;2023-12-20T04:54:46;19.50;17.50;9.00
59179;PMS7003;44956;52.422;20.818;2023-12-20T04:57:49;12.50;12.50;8.00
59179;PMS7003;44956;52.422;20.818;2023-12-20T05:00:51;12.25;10.25;7.75
59179;PMS7003;44956;52.422;20.818;2023-12-20T05:03:54;15.25;14.00;8.00
59179;PMS7003;44956;52.422;20.818;2023-12-20T05:06:57;17.00;13.00;8.00
59179;PMS7003;44956;52.422;20.818;2023-12-20T05:10:00;15.00;12.50;8.75
59179;PMS7003;44956;52.422;20.818;2023-12-20T05:13:03;13.75;12.00;8.50
59179;PMS7003;44956;52.422;20.818;2023-12-20T05:16:06;15.25;14.25;8.75
59179;PMS7003;44956;52.422;20.818;2023-12-20T05:19:10;20.75;17.00;8.50
59179;PMS7003;44956;52.422;20.818;2023-12-20T05:22:13;18.75;16.25;9.00
59179;PMS7003;44956;52.422;20.818;2023-12-20T05:25:16;21.25;19.75;9.75
59179;PMS7003;44956;52.422;20.818;2023-12-20T05:28:19;17.75;17.25;9.00
59179;PMS7003;44956;52.422;20.818;2023-12-20T05:31:21;22.75;22.00;13.00
59179;PMS7003;44956;52.422;20.818;2023-12-20T05:34:24;17.00;17.00;10.00
59179;PMS7003;44956;52.422;20.818;2023-12-20T05:37:27;21.75;20.75;12.00
59179;PMS7003;44956;52.422;20.818;2023-12-20T05:40:31;23.75;21.00;10.00
59179;PMS7003;44956;52.422;20.818;2023-12-20T05:43:33;22.25;19.75;11.00
59179;PMS7003;44956;52.422;20.818;2023-12-20T05:46:36;22.00;20.25;11.25
59179;PMS7003;44956;52.422;20.818;2023-12-20T05:49:38;19.25;17.50;10.50
59179;PMS7003;44956;52.422;20.818;2023-12-20T05:52:41;20.25;18.75;10.00
59179;PMS7003;44956;52.422;20.818;2023-12-20T05:55:44;24.25;21.75;12.25
59179;PMS7003;44956;52.422;20.818;2023-12-20T05:58:47;27.00;21.25;13.25
59179;PMS7003;44956;52.422;20.818;2023-12-20T06:01:49;19.00;16.50;9.00
59179;PMS7003;44956;52.422;20.818;2023-12-20T06:04:52;23.75;17.00;10.75
59179;PMS7003;44956;52.422;20.818;2023-12-20T06:07:55;26.75;22.75;11.50
59179;PMS7003;44956;52.422;20.818;2023-12-20T06:10:59;17.50;17.00;8.00
59179;PMS7003;44956;52.422;20.818;2023-12-20T06:14:02;22.75;20.00;12.00
59179;PMS7003;44956;52.422;20.818;2023-12-20T06:17:05;22.00;22.00;13.00
59179;PMS7003;44956;52.422;20.818;2023-12-20T06:20:08;19.00;18.50;8.75
59179;PMS7003;44956;52.422;20.818;2023-12-20T06:23:12;19.00;16.25;10.00
59179;PMS7003;44956;52.422;20.818;2023-12-20T06:26:14;22.25;14.75;9.00
59179;PMS7003;44956;52.422;20.818;2023-12-20T06:29:17;22.00;17.75;12.00
59179;PMS7003;44956;52.422;20.818;2023-12-20T06:32:22;23.25;17.75;10.00
59179;PMS7003;44956;52.422;20.818;2023-12-20T06:35:25;14.00;14.00;10.00
59179;PMS7003;44956;52.422;20.818;2023-12-20T06:38:28;18.75;16.50;9.00
59179;PMS7003;44956;52.422;20.818;2023-12-20T06:41:31;17.00;14.00;8.75
59179;PMS7003;44956;52.422;20.818;2023-12-20T06:44:34;22.25;16.75;8.75
59179;PMS7003;44956;52.422;20.818;2023-12-20T06:47:37;18.75;17.00;9.25
59179;PMS7003;44956;52.422;20.818;2023-12-20T06:50:39;21.25;15.00;8.25
59179;PMS7003;44956;52.422;20.818;2023-12-20T06:53:42;19.25;15.75;8.50
59179;PMS7003;44956;52.422;20.818;2023-12-20T06:56:45;18.00;13.50;8.25
59179;PMS7003;44956;52.422;20.818;2023-12-20T06:59:48;13.75;12.25;5.25
59179;PMS7003;44956;52.422;20.818;2023-12-20T07:02:50;20.75;17.25;8.75
59179;PMS7003;44956;52.422;20.818;2023-12-20T07:05:53;20.75;15.25;8.50
59179;PMS7003;44956;52.422;20.818;2023-12-20T07:08:56;18.25;16.00;8.75
59179;PMS7003;44956;52.422;20.818;2023-12-20T07:11:59;11.00;10.00;5.50
59179;PMS7003;44956;52.422;20.818;2023-12-20T07:15:02;13.75;13.00;8.50
59179;PMS7003;44956;52.422;20.818;2023-12-20T07:18:04;16.75;15.75;6.50
59179;PMS7003;44956;52.422;20.818;2023-12-20T07:21:09;17.00;15.50;8.25
59179;PMS7003;44956;52.422;20.818;2023-12-20T07:24:11;16.75;16.75;8.75
59179;PMS7003;44956;52.422;20.818;2023-12-20T07:27:14;13.50;12.50;6.00
59179;PMS7003;44956;52.422;20.818;2023-12-20T07:30:17;15.00;14.00;8.50
59179;PMS7003;44956;52.422;20.818;2023-12-20T07:33:19;16.00;14.00;8.25
59179;PMS7003;44956;52.422;20.818;2023-12-20T07:36:23;17.75;15.00;6.00
59179;PMS7003;44956;52.422;20.818;2023-12-20T07:39:25;17.75;17.25;8.75
59179;PMS7003;44956;52.422;20.818;2023-12-20T07:42:28;19.25;17.25;9.00
59179;PMS7003;44956;52.422;20.818;2023-12-20T07:45:31;12.75;12.50;6.50
59179;PMS7003;44956;52.422;20.818;2023-12-20T07:48:37;16.00;16.00;8.25
59179;PMS7003;44956;52.422;20.818;2023-12-20T07:51:39;17.00;13.75;7.75
59179;PMS7003;44956;52.422;20.818;2023-12-20T07:54:43;13.75;13.75;6.00
59179;PMS7003;44956;52.422;20.818;2023-12-20T07:57:46;14.25;13.75;8.00
59179;PMS7003;44956;52.422;20.818;2023-12-20T08:00:49;15.00;15.00;8.00
59179;PMS7003;44956;52.422;20.818;2023-12-20T08:03:52;16.50;13.50;8.00
59179;PMS7003;44956;52.422;20.818;2023-12-20T08:06:55;12.00;12.00;6.00
59179;PMS7003;44956;52.422;20.818;2023-12-20T08:09:58;16.00;13.50;8.00
59179;PMS7003;44956;52.422;20.818;2023-12-20T08:13:01;20.00;18.00;9.00
59179;PMS7003;44956;52.422;20.818;2023-12-20T08:16:04;13.75;12.00;6.75
59179;PMS7003;44956;52.422;20.818;2023-12-20T08:19:09;14.50;13.25;8.00
59179;PMS7003;44956;52.422;20.818;2023-12-20T08:22:11;17.50;17.00;8.25
59179;PMS7003;44956;52.422;20.818;2023-12-20T08:25:14;13.50;11.00;9.25
59179;PMS7003;44956;52.422;20.818;2023-12-20T08:28:17;13.50;13.50;8.50
59179;PMS7003;44956;52.422;20.818;2023-12-20T08:31:20;20.00;13.75;8.50
59179;PMS7003;44956;52.422;20.818;2023-12-20T08:34:23;17.00;12.00;6.75
59179;PMS7003;44956;52.422;20.818;2023-12-20T08:37:26;15.75;13.75;6.00
59179;PMS7003;44956;52.422;20.818;2023-12-20T08:40:29;15.25;15.25;9.00
59179;PMS7003;44956;52.422;20.818;2023-12-20T08:43:33;15.75;12.75;7.50
59179;PMS7003;44956;52.422;20.818;2023-12-20T08:46:37;13.25;13.00;8.50
59179;PMS7003;44956;52.422;20.818;2023-12-20T08:49:40;17.00;16.50;9.25
59179;PMS7003;44956;52.422;20.818;2023-12-20T08:52:43;13.50;13.50;7.50
59179;PMS7003;44956;52.422;20.818;2023-12-20T08:55:46;15.75;13.00;8.00
59179;PMS7003;44956;52.422;20.818;2023-12-20T08:58:49;15.50;12.00;8.00
59179;PMS7003;44956;52.422;20.818;2023-12-20T09:01:51;13.50;12.25;5.75
59179;PMS7003;44956;52.422;20.818;2023-12-20T09:04:57;13.00;11.75;6.50
59179;PMS7003;44956;52.422;20.818;2023-12-20T09:08:00;13.75;13.00;8.00
59179;PMS7003;44956;52.422;20.818;2023-12-20T09:11:02;12.50;12.25;6.50
59179;PMS7003;44956;52.422;20.818;2023-12-20T09:14:06;12.50;10.25;5.00
59179;PMS7003;44956;52.422;20.818;2023-12-20T09:17:08;13.00;13.00;8.00
59179;PMS7003;44956;52.422;20.818;2023-12-20T09:20:13;9.75;8.50;4.00
59179;PMS7003;44956;52.422;20.818;2023-12-20T09:23:16;13.50;12.50;6.00
59179;PMS7003;44956;52.422;20.818;2023-12-20T09:26:20;12.00;12.00;6.50
59179;PMS7003;44956;52.422;20.818;2023-12-20T09:29:23;10.75;10.00;5.00
59179;PMS7003;44956;52.422;20.818;2023-12-20T09:32:27;11.25;9.25;5.00
59179;PMS7003;44956;52.422;20.818;2023-12-20T09:35:29;13.00;12.75;7.50
59179;PMS7003;44956;52.422;20.818;2023-12-20T09:38:32;11.50;11.50;5.50
59179;PMS7003;44956;52.422;20.818;2023-12-20T09:41:36;10.25;10.25;6.00
59179;PMS7003;44956;52.422;20.818;2023-12-20T09:44:40;12.00;12.00;5.25
59179;PMS7003;44956;52.422;20.818;2023-12-20T09:47:51;10.25;10.00;5.75
59179;PMS7003;44956;52.422;20.818;2023-12-20T09:50:55;12.75;9.75;5.00
59179;PMS7003;44956;52.422;20.818;2023-12-20T09:53:58;16.00;12.75;6.00
59179;PMS7003;44956;52.422;20.818;2023-12-20T09:57:02;12.75;11.75;7.25
59179;PMS7003;44956;52.422;20.818;2023-12-20T10:00:04;15.00;11.75;6.00
59179;PMS7003;44956;52.422;20.818;2023-12-20T10:03:13;12.00;10.00;5.00
59179;PMS7003;44956;52.422;20.818;2023-12-20T10:06:19;15.50;10.00;5.00
59179;PMS7003;44956;52.422;20.818;2023-12-20T10:09:23;15.75;12.00;7.50
59179;PMS7003;44956;52.422;20.818;2023-12-20T10:12:26;12.75;12.50;6.00
59179;PMS7003;44956;52.422;20.818;2023-12-20T10:15:29;13.50;11.75;6.50
59179;PMS7003;44956;52.422;20.818;2023-12-20T10:18:33;14.00;14.00;7.00
59179;PMS7003;44956;52.422;20.818;2023-12-20T10:21:41;13.50;12.50;6.00
59179;PMS7003;44956;52.422;20.818;2023-12-20T10:24:44;13.00;10.75;6.75
59179;PMS7003;44956;52.422;20.818;2023-12-20T10:27:49;12.75;12.50;6.50
59179;PMS7003;44956;52.422;20.818;2023-12-20T10:30:53;14.00;13.00;6.00
59179;PMS7003;44956;52.422;20.818;2023-12-20T10:34:01;13.00;13.00;7.50
59179;PMS7003;44956;52.422;20.818;2023-12-20T10:37:04;13.25;12.25;8.00
59179;PMS7003;44956;52.422;20.818;2023-12-20T10:40:07;12.00;12.00;5.25
59179;PMS7003;44956;52.422;20.818;2023-12-20T10:43:11;12.75;12.75;7.75
59179;PMS7003;44956;52.422;20.818;2023-12-20T10:46:14;15.75;14.25;8.00
59179;PMS7003;44956;52.422;20.818;2023-12-20T10:49:17;13.50;13.50;9.00
59179;PMS7003;44956;52.422;20.818;2023-12-20T10:52:23;12.25;11.50;7.50
59179;PMS7003;44956;52.422;20.818;2023-12-20T10:55:27;20.75;15.75;9.00
59179;PMS7003;44956;52.422;20.818;2023-12-20T10:58:31;14.50;13.50;8.50
59179;PMS7003;44956;52.422;20.818;2023-12-20T11:01:35;16.00;16.00;8.00
59179;PMS7003;44956;52.422;20.818;2023-12-20T11:08:12;15.50;14.75;9.00
59179;PMS7003;44956;52.422;20.818;2023-12-20T11:14:59;13.50;12.50;6.00
59179;PMS7003;44956;52.422;20.818;2023-12-20T11:18:06;10.50;10.50;8.00
59179;PMS7003;44956;52.422;20.818;2023-12-20T11:21:09;13.00;13.00;5.50
59179;PMS7003;44956;52.422;20.818;2023-12-20T11:24:13;13.75;11.00;6.75
59179;PMS7003;44956;52.422;20.818;2023-12-20T11:27:19;11.75;11.75;6.00
59179;PMS7003;44956;52.422;20.818;2023-12-20T11:30:22;14.75;14.25;8.50
59179;PMS7003;44956;52.422;20.818;2023-12-20T11:33:26;18.25;16.50;7.25
59179;PMS7003;44956;52.422;20.818;2023-12-20T11:36:32;21.25;15.00;9.00
59179;PMS7003;44956;52.422;20.818;2023-12-20T11:39:35;13.00;13.00;8.25
59179;PMS7003;44956;52.422;20.818;2023-12-20T11:42:41;14.50;11.00;6.25
59179;PMS7003;44956;52.422;20.818;2023-12-20T11:45:49;15.00;13.50;8.00
59179;PMS7003;44956;52.422;20.818;2023-12-20T11:48:54;15.50;13.75;6.00
59179;PMS7003;44956;52.422;20.818;2023-12-20T11:51:57;14.50;11.75;6.00
59179;PMS7003;44956;52.422;20.818;2023-12-20T11:55:00;9.50;9.50;5.00
59179;PMS7003;44956;52.422;20.818;2023-12-20T11:58:02;12.25;12.25;6.00
59179;PMS7003;44956;52.422;20.818;2023-12-20T12:01:05;12.50;11.00;5.50
59179;PMS7003;44956;52.422;20.818;2023-12-20T12:04:10;11.25;11.25;5.25
59179;PMS7003;44956;52.422;20.818;2023-12-20T12:07:13;11.00;11.00;4.25
59179;PMS7003;44956;52.422;20.818;2023-12-20T12:10:16;8.75;8.75;2.00
59179;PMS7003;44956;52.422;20.818;2023-12-20T12:13:19;12.25;11.75;5.00
59179;PMS7003;44956;52.422;20.818;2023-12-20T12:16:22;12.25;9.75;6.00
59179;PMS7003;44956;52.422;20.818;2023-12-20T12:19:26;12.50;10.00;6.00
59179;PMS7003;44956;52.422;20.818;2023-12-20T12:22:29;12.25;10.00;6.00
59179;PMS7003;44956;52.422;20.818;2023-12-20T12:25:33;11.50;9.50;4.25
59179;PMS7003;44956;52.422;20.818;2023-12-20T12:28:44;17.25;13.75;4.75
59179;PMS7003;44956;52.422;20.818;2023-12-20T12:31:47;16.00;12.00;5.00
59179;PMS7003;44956;52.422;20.818;2023-12-20T12:34:50;13.50;12.75;8.00
59179;PMS7003;44956;52.422;20.818;2023-12-20T12:37:52;6.50;5.50;5.00
59179;PMS7003;44956;52.422;20.818;2023-12-20T12:40:55;17.00;12.00;6.00
59179;PMS7003;44956;52.422;20.818;2023-12-20T12:43:58;12.75;10.50;6.00
59179;PMS7003;44956;52.422;20.818;2023-12-20T12:47:12;12.75;12.50;8.00
59179;PMS7003;44956;52.422;20.818;2023-12-20T12:50:15;14.50;13.50;6.00
59179;PMS7003;44956;52.422;20.818;2023-12-20T12:53:18;17.75;13.75;6.00
59179;PMS7003;44956;52.422;20.818;2023-12-20T12:56:21;12.00;9.75;5.75
59179;PMS7003;44956;52.422;20.818;2023-12-20T12:59:24;14.25;14.25;8.00
59179;PMS7003;44956;52.422;20.818;2023-12-20T13:02:27;17.50;12.50;6.00
59179;PMS7003;44956;52.422;20.818;2023-12-20T13:05:29;13.25;12.25;8.00
59179;PMS7003;44956;52.422;20.818;2023-12-20T13:08:34;15.25;13.25;8.50
59179;PMS7003;44956;52.422;20.818;2023-12-20T13:11:37;15.25;13.25;8.00
59179;PMS7003;44956;52.422;20.818;2023-12-20T13:14:40;10.00;10.00;8.00
59179;PMS7003;44956;52.422;20.818;2023-12-20T13:17:42;17.00;13.00;7.50
59179;PMS7003;44956;52.422;20.818;2023-12-20T13:20:46;12.50;12.50;5.50
59179;PMS7003;44956;52.422;20.818;2023-12-20T13:23:49;13.00;13.00;8.00
59179;PMS7003;44956;52.422;20.818;2023-12-20T13:26:52;14.75;12.00;7.00
59179;PMS7003;44956;52.422;20.818;2023-12-20T13:29:55;14.75;10.50;5.00
59179;PMS7003;44956;52.422;20.818;2023-12-20T13:32:58;15.75;13.00;6.00
59179;PMS7003;44956;52.422;20.818;2023-12-20T13:36:00;13.00;12.25;8.00
59179;PMS7003;44956;52.422;20.818;2023-12-20T13:39:07;13.00;9.75;5.00
59179;PMS7003;44956;52.422;20.818;2023-12-20T13:42:10;8.75;8.00;6.00
59179;PMS7003;44956;52.422;20.818;2023-12-20T13:45:13;12.25;9.50;6.00
59179;PMS7003;44956;52.422;20.818;2023-12-20T13:48:15;10.25;10.25;5.50
59179;PMS7003;44956;52.422;20.818;2023-12-20T13:51:19;11.00;11.00;6.00
59179;PMS7003;44956;52.422;20.818;2023-12-20T13:54:22;12.00;9.25;6.50
59179;PMS7003;44956;52.422;20.818;2023-12-20T13:57:25;15.00;13.50;8.00
59179;PMS7003;44956;52.422;20.818;2023-12-20T14:00:48;17.50;14.50;9.25
59179;PMS7003;44956;52.422;20.818;2023-12-20T14:03:51;28.75;18.50;10.00
59179;PMS7003;44956;52.422;20.818;2023-12-20T14:06:53;24.25;18.50;10.25
59179;PMS7003;44956;52.422;20.818;2023-12-20T14:09:56;25.00;23.50;12.25
59179;PMS7003;44956;52.422;20.818;2023-12-20T14:12:59;27.00;18.75;9.75
59179;PMS7003;44956;52.422;20.818;2023-12-20T14:16:02;20.50;19.25;10.00
59179;PMS7003;44956;52.422;20.818;2023-12-20T14:19:08;23.25;20.50;11.75
59179;PMS7003;44956;52.422;20.818;2023-12-20T14:22:12;25.75;22.50;12.50
59179;PMS7003;44956;52.422;20.818;2023-12-20T14:25:19;24.50;17.00;10.25
59179;PMS7003;44956;52.422;20.818;2023-12-20T14:28:21;16.50;16.00;10.25
59179;PMS7003;44956;52.422;20.818;2023-12-20T14:31:24;19.50;16.25;9.00
59179;PMS7003;44956;52.422;20.818;2023-12-20T14:34:27;22.75;18.75;10.25
59179;PMS7003;44956;52.422;20.818;2023-12-20T14:37:30;23.00;20.00;12.00
59179;PMS7003;44956;52.422;20.818;2023-12-20T14:40:33;22.50;22.50;10.75
59179;PMS7003;44956;52.422;20.818;2023-12-20T14:43:36;16.75;16.00;8.50
59179;PMS7003;44956;52.422;20.818;2023-12-20T14:46:39;22.00;15.75;8.50
59179;PMS7003;44956;52.422;20.818;2023-12-20T14:49:43;15.50;9.75;6.00
59179;PMS7003;44956;52.422;20.818;2023-12-20T14:52:46;18.25;12.75;8.75
59179;PMS7003;44956;52.422;20.818;2023-12-20T14:55:48;16.75;15.00;8.50
59179;PMS7003;44956;52.422;20.818;2023-12-20T14:58:53;18.25;17.50;10.00
59179;PMS7003;44956;52.422;20.818;2023-12-20T15:01:55;17.25;16.75;9.00
59179;PMS7003;44956;52.422;20.818;2023-12-20T15:04:58;20.25;15.75;8.00
59179;PMS7003;44956;52.422;20.818;2023-12-20T15:08:02;15.75;15.75;8.00
59179;PMS7003;44956;52.422;20.818;2023-12-20T15:11:05;15.75;13.00;8.00
59179;PMS7003;44956;52.422;20.818;2023-12-20T15:14:07;19.00;17.00;9.00
59179;PMS7003;44956;52.422;20.818;2023-12-20T15:17:10;18.25;16.25;9.00
59179;PMS7003;44956;52.422;20.818;2023-12-20T15:20:13;23.50;19.25;9.00
59179;PMS7003;44956;52.422;20.818;2023-12-20T15:23:17;20.75;16.75;11.00
59179;PMS7003;44956;52.422;20.818;2023-12-20T15:26:20;18.00;16.00;8.75
59179;PMS7003;44956;52.422;20.818;2023-12-20T15:29:23;19.00;17.50;11.00
59179;PMS7003;44956;52.422;20.818;2023-12-20T15:32:27;17.25;12.50;8.00
59179;PMS7003;44956;52.422;20.818;2023-12-20T15:35:30;24.67;19.67;11.00
59179;PMS7003;44956;52.422;20.818;2023-12-20T15:38:34;16.75;16.75;8.25
59179;PMS7003;44956;52.422;20.818;2023-12-20T15:41:38;16.75;14.75;7.50
59179;PMS7003;44956;52.422;20.818;2023-12-20T15:44:40;19.50;17.00;9.00
59179;PMS7003;44956;52.422;20.818;2023-12-20T15:47:44;21.75;14.00;9.00
59179;PMS7003;44956;52.422;20.818;2023-12-20T15:50:47;10.50;8.50;7.50
59179;PMS7003;44956;52.422;20.818;2023-12-20T15:53:50;15.25;13.25;8.00
59179;PMS7003;44956;52.422;20.818;2023-12-20T15:56:54;18.75;15.25;9.00
59179;PMS7003;44956;52.422;20.818;2023-12-20T15:59:57;19.00;18.50;10.50
59179;PMS7003;44956;52.422;20.818;2023-12-20T16:02:59;16.25;12.25;6.25
59179;PMS7003;44956;52.422;20.818;2023-12-20T16:06:02;18.50;15.00;8.00
59179;PMS7003;44956;52.422;20.818;2023-12-20T16:09:06;21.50;16.50;11.00
59179;PMS7003;44956;52.422;20.818;2023-12-20T16:12:10;23.25;18.50;12.50
59179;PMS7003;44956;52.422;20.818;2023-12-20T16:15:13;20.25;16.50;8.75
59179;PMS7003;44956;52.422;20.818;2023-12-20T16:18:16;18.25;15.50;8.00
59179;PMS7003;44956;52.422;20.818;2023-12-20T16:21:19;18.25;13.50;7.00
59179;PMS7003;44956;52.422;20.818;2023-12-20T16:24:21;14.75;14.50;8.00
59179;PMS7003;44956;52.422;20.818;2023-12-20T16:27:24;22.50;16.00;9.00
59179;PMS7003;44956;52.422;20.818;2023-12-20T16:30:27;20.00;16.50;9.00
59179;PMS7003;44956;52.422;20.818;2023-12-20T16:33:30;18.50;15.50;9.00
59179;PMS7003;44956;52.422;20.818;2023-12-20T16:39:54;16.00;15.00;8.00
59179;PMS7003;44956;52.422;20.818;2023-12-20T16:42:58;24.67;14.33;6.33
59179;PMS7003;44956;52.422;20.818;2023-12-20T16:46:01;21.25;16.75;8.50
59179;PMS7003;44956;52.422;20.818;2023-12-20T16:49:09;15.00;12.67;8.00
59179;PMS7003;44956;52.422;20.818;2023-12-20T16:52:12;18.67;16.67;9.00
59179;PMS7003;44956;52.422;20.818;2023-12-20T16:55:16;13.75;13.75;8.50
59179;PMS7003;44956;52.422;20.818;2023-12-20T16:58:18;15.00;12.00;8.00
59179;PMS7003;44956;52.422;20.818;2023-12-20T17:01:22;13.50;13.25;8.00
59179;PMS7003;44956;52.422;20.818;2023-12-20T17:04:28;20.00;16.00;9.00
59179;PMS7003;44956;52.422;20.818;2023-12-20T17:07:33;17.00;16.50;8.75
59179;PMS7003;44956;52.422;20.818;2023-12-20T17:10:36;13.75;12.00;6.75
59179;PMS7003;44956;52.422;20.818;2023-12-20T17:13:39;20.00;15.50;11.00